• Join FlightAware (Why Join?)
  • Login
  • US Flag 
Gobble Gobble! 
06:18PM EST


 

Airport Tracker/Info


-or-


 

Live Flight TrackerFlight Track Log ✈ AAY863 ✈ 27-Jul-2014 ✈ KCID - KPIE

Flight Track Log - Related Links

Times and Time Zones

All times are in EDT time to prevent confusion due to time zone crossing. See the AAY863 flight status page for this flight to view local times or setup timezone preferences in your user account.

Time Position Orientation Groundspeed Altitude Reporting Facility
EDT Latitude Longitude Course Direction KTS MPH feet Rate Location/Type
05:42PM 41.8164 -91.7639 137° Southeast 245 282 4,000  Level Chicago Center
05:43PM 41.7414 -91.7233 158° South 276 318 6,300 2,640 Climbing Chicago Center
05:44PM 41.6422 -91.6739 160° South 314 361 9,500 2,400 Climbing Chicago Center
05:45PM 41.5522 -91.6292 160° South 344 396 11,300 1,500 Climbing Chicago Center
05:46PM 41.4650 -91.5514 146° Southeast 389 448 12,700 1,380 Climbing Chicago Center
05:47PM 41.2460 -91.2906 137° Southeast  Level FlightAware Approximate
05:47PM 41.3769 -91.4439 137° Southeast 429 494 14,200  Level Chicago Center
05:48PM 41.1568 -91.1792 137° Southeast  Level FlightAware Approximate
05:48PM 41.2628 -91.3094 138° Southeast 458 527 16,500  Level Chicago Center
05:49PM 41.1742 -91.2033 138° Southeast 466 536 18,300 1,740 Climbing Chicago Center
05:51PM 41.0722 -91.0858 139° Southeast 483 556 20,200 1,740 Climbing Chicago Center
05:52PM 40.9478 -90.9414 139° Southeast 495 570 21,900 1,500 Climbing Chicago Center
05:53PM 40.8419 -90.8167 138° Southeast 505 581 23,300 1,260 Climbing Chicago Center
05:54PM 40.7333 -90.6911 139° Southeast 516 594 24,600 1,200 Climbing Chicago Center
05:55PM 40.6214 -90.5625 139° Southeast 530 610 25,900 1,320 Climbing Chicago Center
05:56PM 40.5097 -90.4339 139° Southeast 534 615 27,400 1,440 Climbing Chicago Center
05:57PM 40.3753 -90.2806 139° Southeast 537 618 28,900 1,200 Climbing Chicago Center
05:58PM 40.2625 -90.1533 139° Southeast 538 619 30,000 1,020 Climbing Chicago Center
05:59PM 40.1503 -90.0256 139° Southeast 539 620 31,100 960 Climbing Chicago Center
06:00PM 40.0144 -89.8739 139° Southeast 536 617 32,200 780 Climbing Kansas City Center
06:01PM 39.9022 -89.7492 140° Southeast 536 617 32,900 360 Climbing Kansas City Center
06:02PM 39.7881 -89.6236 140° Southeast 536 617 33,000  Climbing Kansas City Center
06:03PM 39.6681 -89.4989 141° Southeast 543 625 33,000  Level Kansas City Center
06:04PM 39.5497 -89.3769 142° Southeast 543 625 33,000  Level Kansas City Center
06:05PM 39.4061 -89.2308 142° Southeast 543 625 33,000  Level Kansas City Center
06:06PM 39.2883 -89.1103 142° Southeast 543 625 33,000  Level Kansas City Center
06:07PM 39.1703 -88.9897 142° Southeast 543 625 33,000  Level Kansas City Center
06:08PM 39.0567 -88.8731 141° Southeast 530 610 33,000  Level Kansas City Center
06:09PM 38.9389 -88.7550 142° Southeast 529 609 33,000  Level Kansas City Center
06:10PM 38.8175 -88.6331 142° Southeast 533 613 33,000  Level Kansas City Center
06:11PM 38.6981 -88.5156 142° Southeast 535 616 33,000  Level Kansas City Center
06:13PM 38.5319 -88.3519 142° Southeast 537 618 33,000  Level Indianapolis Center
06:13PM 38.4369 -88.2578 142° Southeast 537 618 33,000  Level Kansas City Center
06:15PM 38.2950 -88.1194 143° Southeast 537 618 33,000  Level Indianapolis Center
06:16PM 38.1769 -88.0042 142° Southeast 537 618 33,000  Level Indianapolis Center
06:17PM 38.0603 -87.8914 143° Southeast 535 616 33,000  Level Indianapolis Center
06:18PM 37.9194 -87.7567 143° Southeast 533 613 33,000  Level Indianapolis Center
06:19PM 37.7897 -87.6778 154° Southeast 526 605 33,000  Level Indianapolis Center
06:20PM 37.6572 -87.5956 154° Southeast 514 592 33,000  Level Indianapolis Center
06:21PM 37.5278 -87.5172 154° Southeast 512 589 33,000  Level Indianapolis Center
06:22PM 37.3983 -87.4372 154° Southeast 512 589 33,000  Level Indianapolis Center
06:23PM 37.3122 -87.3853 154° Southeast 512 589 33,000  Level Memphis Center
06:24PM 37.1842 -87.3072 154° Southeast 512 589 33,000  Level Memphis Center
06:25PM 37.0558 -87.2303 154° Southeast 508 585 33,000  Level Memphis Center
06:26PM 36.9069 -87.1411 154° Southeast 508 585 33,000  Level Memphis Center
06:27PM 36.7794 -87.0639 154° Southeast 504 580 33,000  Level Memphis Center
06:28PM 36.6517 -86.9881 155° Southeast 504 580 33,000  Level Memphis Center
06:29PM 36.5239 -86.9114 154° Southeast 504 580 33,000  Level Memphis Center
06:30PM 36.4019 -86.8367 154° Southeast 502 578 33,000  Level Memphis Center
06:31PM 36.2556 -86.7533 155° Southeast 510 587 33,000  Level Memphis Center
06:32PM 36.1286 -86.6806 155° Southeast 509 586 33,000  Level Memphis Center
06:33PM 35.9997 -86.6172 158° South 497 572 33,000  Level Memphis Center
06:34PM 35.8708 -86.5533 158° South 497 572 33,000  Level Memphis Center
06:35PM 35.7414 -86.4897 158° South 496 571 33,000  Level Memphis Center
06:36PM 35.6122 -86.4264 158° South 496 571 33,000  Level Memphis Center
06:37PM 35.4836 -86.3628 158° South 496 571 33,000  Level Memphis Center
06:38PM 35.3339 -86.2892 158° South 496 571 33,000  Level Memphis Center
06:39PM 35.2044 -86.2256 158° South 495 570 33,000  Level Memphis Center
06:40PM 35.0744 -86.1633 159° South 495 570 33,000  Level Memphis Center
06:41PM 34.9478 -86.1014 158° South 495 570 33,000  Level Memphis Center
06:42PM 34.8203 -86.0408 159° South 495 570 33,000  Level Memphis Center
06:43PM 34.6903 -85.9769 158° South 495 570 33,000  Level Memphis Center
06:44PM 34.5619 -85.9156 158° South 495 570 33,000  Level Memphis Center
06:45PM 34.4069 -85.8417 159° South 495 570 33,000  Level Memphis Center
06:46PM 34.2800 -85.7819 159° South 493 567 33,000  Level Memphis Center
06:48PM 34.1086 -85.7022 159° South 485 558 33,000  Level Atlanta Center
06:49PM 33.9822 -85.6447 159° South 485 558 33,000  Level Atlanta Center
06:50PM 33.8533 -85.5847 159° South 485 558 33,000  Level Atlanta Center
06:51PM 33.7289 -85.5250 158° South 485 558 33,000  Level Atlanta Center
06:52PM 33.6022 -85.4678 159° South 485 558 33,000  Level Atlanta Center
06:53PM 33.4692 -85.4308 167° South 480 552 33,000  Level Atlanta Center
06:54PM 33.3358 -85.3989 169° South 486 559 33,000  Level Atlanta Center
06:55PM 33.2069 -85.3672 168° South 486 559 33,000  Level Atlanta Center
06:56PM 33.0756 -85.3328 168° South 486 559 33,000  Level Atlanta Center
06:57PM 32.9511 -85.2792 160° South 486 559 33,000  Level Atlanta Center
06:58PM 32.8242 -85.2278 161° South 486 559 33,000  Level Atlanta Center
06:59PM 32.6953 -85.1792 162° South 486 559 33,000  Level Atlanta Center
07:00PM 32.5683 -85.1283 161° South 476 548 33,000  Level Atlanta Center
07:01PM 32.4478 -85.0825 162° South 476 548 33,000  Level Atlanta Center
07:02PM 32.3311 -85.0369 162° South 476 548 33,000  Level Atlanta Center
07:03PM 32.2022 -84.9961 165° South 482 555 33,000  Level Atlanta Center
07:06PM 31.7447 -84.8178 162° South 479 551 33,000  Level Jacksonville Center
07:07PM 31.6181 -84.7711 163° South 479 551 33,000  Level Jacksonville Center
07:08PM 31.4914 -84.7247 163° South 484 557 33,000  Level Jacksonville Center
07:09PM 31.3647 -84.6761 162° South 478 550 33,000  Level Jacksonville Center
07:10PM 31.2381 -84.6300 163° South 478 550 33,000  Level Jacksonville Center
07:11PM 31.1133 -84.5814 162° South 484 557 33,000  Level Jacksonville Center
07:12PM 30.9908 -84.5381 163° South 477 549 33,000  Level Jacksonville Center
07:13PM 30.8683 -84.4900 161° South 477 549 33,000  Level Jacksonville Center
07:14PM 30.7436 -84.4444 163° South 477 549 33,000  Level Jacksonville Center
07:15PM 30.6189 -84.3989 163° South 477 549 33,000  Level Jacksonville Center
07:16PM 30.5025 -84.3392 156° South 477 549 33,000  Level Jacksonville Center
07:17PM 30.3886 -84.2653 151° Southeast 467 537 33,000  Level Jacksonville Center
07:18PM 30.2767 -84.1914 150° Southeast 462 532 33,000  Level Jacksonville Center
07:19PM 30.1686 -84.1228 151° Southeast 456 525 33,000  Level Jacksonville Center
07:20PM 30.0586 -84.0517 151° Southeast 456 525 33,000 -60 Level Jacksonville Center
07:21PM 29.9486 -83.9786 150° Southeast 456 525 32,900  Descending Jacksonville Center
07:22PM 29.8261 -83.9006 151° Southeast 456 525 33,000  Climbing Jacksonville Center
07:23PM 29.7161 -83.8300 151° Southeast 456 525 33,000  Level Jacksonville Center
07:24PM 29.6039 -83.7572 151° Southeast 456 525 33,000 -540 Level Jacksonville Center
07:25PM 29.4894 -83.6847 151° Southeast 456 525 32,000 -1,620 Descending Jacksonville Center
07:26PM 29.3772 -83.6122 151° Southeast 456 525 29,900 -2,160 Descending Jacksonville Center
07:27PM 29.2628 -83.5400 151° Southeast 456 525 27,700 -2,220 Descending Jacksonville Center
07:28PM 29.1483 -83.4633 150° Southeast 461 531 25,500 -2,220 Descending Jacksonville Center
07:29PM 29.0358 -83.3936 152° Southeast 461 531 23,300 -2,220 Descending Jacksonville Center
07:30PM 28.9297 -83.3244 150° Southeast 451 519 21,100 -2,220 Descending Jacksonville Center
07:31PM 28.8278 -83.2600 151° Southeast 439 505 18,900 -2,160 Descending Jacksonville Center
07:34PM 28.6086 -83.1189 151° Southeast 412 474 14,200 -1,860 Descending Miami Center
07:35PM 28.5058 -83.0567 152° Southeast 399 459 12,900 -840 Descending Miami Center
07:36PM 28.4000 -83.0000 155° Southeast 385 443 12,500 -660 Descending Tampa TRACON
07:37PM 28.3203 -82.9433 148° Southeast 374 430 11,600 -960 Descending Miami Center
07:38PM 28.2419 -82.8947 151° Southeast 327 376 10,700 -1,320 Descending Miami Center
07:39PM 28.1675 -82.8583 157° South 297 342 8,900 -2,100 Descending Miami Center
07:40PM 28.0833 -82.8333 165° South 286 329 6,500 -2,340 Descending Tampa TRACON
07:41PM 28.0000 -82.8000 161° South 279 321 4,300 -1,800 Descending Tampa TRACON
07:42PM 27.9333 -82.7833 168° South 255 293 3,000 -1,200 Descending Tampa TRACON
07:43PM 27.8833 -82.7500 149° Southeast 205 236 1,900 -840 Descending Tampa TRACON
07:44PM 27.8500 -82.7167 139° Southeast 172 198 1,400 -600 Descending Tampa TRACON
07:45PM 27.8667 -82.6833 61° Northeast 156 180 800 -600 Descending Tampa TRACON